Dell City, Texas
Current Conditions -  °F | °C
As of 2:51 PM on Saturday 25 Oct 2014 (Local Time) from KGDP Reporting Station
Clear Clear  
Wind Chill: 78°   Ceiling: Unl
Heat Index: 78°   Visibility: 10mi
Dew Point: 42°   Wind: 17mph
Humidity: 28%   Direction: 230°SW
Pressure: 30.26"   Gusts: 24mph
Location:  31.94°N, 105.2°W
Report Text: KGDP 252051Z AUTO 23015G21KT 10SM CLR 26/06 A3026 RMK AO2 SLP173 T02560056 56021
Loading
Personal Weather Stations






























Interactive Weather Map
Tropical Storm Tracking
New forecast layout! Learn more

10-Day Weather Forecast

Advertisements
Track Severe Weather on mobile